Time;durP1;ratioP1;P1;durP2;ratioP2;P2;SDS_P1;SDS_P2;PMS_P1;PMS_P2;Temp;Humidity;BMP_temperature;BMP_pressure;BME280_temperature;BME280_humidity;BME280_pressure;Samples;Min_cycle;Max_cycle;Signal;HPM_P1;HPM_P2
2021/12/23 00:02:15;;;;;;;;;;;1.70;73.70;;;;;;6072496;23;19917;-78
2021/12/23 00:04:42;;;;;;;;;;;1.70;73.70;;;;;;6096464;23;19922;-79
2021/12/23 00:07:09;;;;;;;;;;;1.70;73.80;;;;;;6100433;23;19929;-77
2021/12/23 00:12:15;;;;;;;;;;;1.60;73.70;;;;;;6072894;23;19921;-80
2021/12/23 00:14:42;;;;;;;;;;;1.50;73.60;;;;;;6107261;23;20001;-78
2021/12/23 00:25:19;;;;;;;;;;;1.30;76.10;;;;;;6074045;23;19928;-80
2021/12/23 00:27:46;;;;;;;;;;;1.20;75.70;;;;;;6040946;23;19977;-80
2021/12/23 00:30:13;;;;;;;;;;;1.20;75.40;;;;;;6052832;23;20346;-78
2021/12/23 00:32:40;;;;;;;;;;;1.20;75.30;;;;;;6043935;23;20338;-81
2021/12/23 00:35:09;;;;;;;;;;;1.20;75.10;;;;;;6054266;23;19921;-80
2021/12/23 00:37:40;;;;;;;;;;;1.10;75.00;;;;;;6041973;23;19992;-80
2021/12/23 00:40:09;;;;;;;;;;;1.10;75.10;;;;;;6045142;23;19977;-78
2021/12/23 00:42:36;;;;;;;;;;;1.10;75.20;;;;;;6050746;23;19926;-81
2021/12/23 00:45:03;;;;;;;;;;;1.00;75.10;;;;;;6059518;23;19969;-80
2021/12/23 00:47:30;;;;;;;;;;;1.00;75.00;;;;;;6048642;23;19926;-80
2021/12/23 00:49:57;;;;;;;;;;;1.00;75.00;;;;;;6048168;23;19922;-78
2021/12/23 00:52:32;;;;;;;;;;;1.00;75.00;;;;;;6048654;23;19973;-80
2021/12/23 00:54:59;;;;;;;;;;;1.00;75.00;;;;;;6043093;23;20418;-79
2021/12/23 00:57:28;;;;;;;;;;;0.90;76.20;;;;;;6048305;23;19905;-78
2021/12/23 00:59:55;;;;;;;;;;;1.00;79.00;;;;;;6047487;23;19933;-81
2021/12/23 01:02:26;;;;;;;;;;;0.90;79.10;;;;;;6054703;23;19925;-81
2021/12/23 01:04:53;;;;;;;;;;;0.90;79.80;;;;;;6047768;23;19955;-78
2021/12/23 01:07:20;;;;;;;;;;;0.90;80.10;;;;;;6054674;23;20017;-80
2021/12/23 01:09:47;;;;;;;;;;;0.90;80.40;;;;;;6052019;23;19925;-81
2021/12/23 01:12:19;;;;;;;;;;;0.80;79.90;;;;;;6044863;23;19973;-78
2021/12/23 01:15:10;;;;;;;;;;;0.90;79.10;;;;;;6046762;23;19922;-78
2021/12/23 01:17:54;;;;;;;;;;;0.90;78.60;;;;;;6072761;23;19921;-80
2021/12/23 01:20:26;;;;;;;;;;;0.90;78.10;;;;;;6062948;23;19938;-79
2021/12/23 01:22:54;;;;;;;;;;;0.90;77.50;;;;;;6066628;23;19922;-79
2021/12/23 01:25:21;;;;;;;;;;;0.90;77.00;;;;;;6051527;23;19906;-77
2021/12/23 01:27:48;;;;;;;;;;;1.00;76.40;;;;;;6043479;23;19973;-80
2021/12/23 01:30:17;;;;;;;;;;;1.00;76.30;;;;;;6043625;23;20355;-79
2021/12/23 01:32:45;;;;;;;;;;;1.00;76.00;;;;;;6052185;23;19926;-81
2021/12/23 01:35:12;;;;;;;;;;;1.00;76.00;;;;;;6042759;23;19921;-80
2021/12/23 01:37:38;;;;;;;;;;;1.00;76.00;;;;;;6042255;23;20240;-80
2021/12/23 01:40:06;;;;;;;;;;;1.00;76.20;;;;;;6054168;23;19921;-80
2021/12/23 01:42:33;;;;;;;;;;;1.00;77.00;;;;;;6042654;23;19922;-80
2021/12/23 01:45:00;;;;;;;;;;;0.90;78.70;;;;;;6047054;23;20407;-80
2021/12/23 01:47:29;;;;;;;;;;;0.60;81.80;;;;;;6078687;23;19925;-79
2021/12/23 01:49:56;;;;;;;;;;;0.60;83.20;;;;;;6049733;23;19922;-77
2021/12/23 01:52:23;;;;;;;;;;;0.50;83.50;;;;;;6055207;23;19930;-80
2021/12/23 01:54:50;;;;;;;;;;;0.50;82.90;;;;;;6041893;23;20347;-80
2021/12/23 01:57:17;;;;;;;;;;;0.50;82.00;;;;;;6053465;23;19925;-80
2021/12/23 01:59:44;;;;;;;;;;;0.60;81.10;;;;;;6047059;23;19916;-80
2021/12/23 02:02:11;;;;;;;;;;;0.60;80.80;;;;;;6054906;23;19905;-78
2021/12/23 02:04:37;;;;;;;;;;;0.60;81.30;;;;;;6082955;23;19905;-78
2021/12/23 02:07:04;;;;;;;;;;;0.60;81.00;;;;;;6046381;23;19926;-76
2021/12/23 02:09:31;;;;;;;;;;;0.60;81.60;;;;;;6049014;23;20255;-80
2021/12/23 02:11:58;;;;;;;;;;;0.60;82.50;;;;;;6052191;23;19930;-80
2021/12/23 02:14:25;;;;;;;;;;;0.60;83.10;;;;;;6055922;23;19969;-78
2021/12/23 02:16:51;;;;;;;;;;;0.50;84.10;;;;;;6043919;23;19944;-79
2021/12/23 02:19:19;;;;;;;;;;;0.50;83.70;;;;;;6047569;23;19922;-79
2021/12/23 02:21:47;;;;;;;;;;;0.50;83.20;;;;;;6065005;23;19922;-78
2021/12/23 02:24:14;;;;;;;;;;;0.50;82.70;;;;;;6105242;23;19927;-78
2021/12/23 02:26:41;;;;;;;;;;;0.60;81.90;;;;;;6089179;23;19925;-81
2021/12/23 02:29:09;;;;;;;;;;;0.60;81.00;;;;;;6114870;23;19922;-77
2021/12/23 02:31:36;;;;;;;;;;;0.60;80.30;;;;;;6071829;23;19909;-78
2021/12/23 02:34:03;;;;;;;;;;;0.60;79.60;;;;;;6101307;23;19928;-80
2021/12/23 02:36:30;;;;;;;;;;;0.70;80.00;;;;;;6089996;23;20051;-80
2021/12/23 02:38:58;;;;;;;;;;;0.60;81.10;;;;;;6094347;23;19921;-80
2021/12/23 02:41:25;;;;;;;;;;;0.60;80.70;;;;;;6074202;23;20315;-78
2021/12/23 02:43:54;;;;;;;;;;;0.60;81.10;;;;;;6101331;23;20145;-79
2021/12/23 02:46:21;;;;;;;;;;;0.50;80.80;;;;;;6095191;23;19922;-80
2021/12/23 02:48:48;;;;;;;;;;;0.50;80.60;;;;;;6100051;23;19922;-80
2021/12/23 02:51:16;;;;;;;;;;;0.50;80.70;;;;;;6099946;23;19936;-77
2021/12/23 02:53:44;;;;;;;;;;;0.50;80.10;;;;;;6071966;23;19921;-80
2021/12/23 02:56:14;;;;;;;;;;;0.50;79.00;;;;;;6101403;23;19929;-80
2021/12/23 02:58:41;;;;;;;;;;;0.60;78.00;;;;;;6095730;23;19905;-78
2021/12/23 03:01:09;;;;;;;;;;;0.60;77.30;;;;;;6100574;23;20462;-78
2021/12/23 03:03:36;;;;;;;;;;;0.70;77.30;;;;;;6081984;23;19925;-80
2021/12/23 03:06:06;;;;;;;;;;;0.70;76.50;;;;;;6097209;23;19956;-79
2021/12/23 03:08:38;;;;;;;;;;;0.70;75.80;;;;;;6091002;23;19928;-80
2021/12/23 03:11:06;;;;;;;;;;;0.70;75.80;;;;;;6104191;23;19941;-77
2021/12/23 03:13:33;;;;;;;;;;;0.70;75.70;;;;;;6079182;23;19929;-79
2021/12/23 03:16:00;;;;;;;;;;;0.70;75.50;;;;;;6096250;23;19933;-79
2021/12/23 03:18:27;;;;;;;;;;;0.70;75.50;;;;;;6078476;23;19969;-81
2021/12/23 03:20:54;;;;;;;;;;;0.70;75.30;;;;;;6096275;23;19930;-78
2021/12/23 03:23:21;;;;;;;;;;;0.70;75.10;;;;;;6101943;23;19925;-80
2021/12/23 03:25:48;;;;;;;;;;;0.70;74.90;;;;;;6096733;23;19937;-79
2021/12/23 03:28:14;;;;;;;;;;;0.70;74.80;;;;;;6096139;23;19932;-80
2021/12/23 03:30:41;;;;;;;;;;;0.70;74.80;;;;;;6105077;23;19905;-78
2021/12/23 03:33:09;;;;;;;;;;;0.60;74.80;;;;;;6078825;23;19981;-78
2021/12/23 03:35:36;;;;;;;;;;;0.60;75.00;;;;;;6093596;23;19926;-80
2021/12/23 03:38:04;;;;;;;;;;;0.60;75.10;;;;;;6092628;23;19980;-78
2021/12/23 03:40:30;;;;;;;;;;;0.60;75.10;;;;;;6095689;23;19925;-78
2021/12/23 03:42:57;;;;;;;;;;;0.60;75.20;;;;;;6095581;23;19925;-80
2021/12/23 03:45:24;;;;;;;;;;;0.70;75.10;;;;;;6101289;23;20308;-79
2021/12/23 03:47:51;;;;;;;;;;;0.60;75.00;;;;;;6090650;23;19925;-79
2021/12/23 03:50:19;;;;;;;;;;;0.70;74.60;;;;;;6092579;23;19946;-80
2021/12/23 03:52:46;;;;;;;;;;;0.70;74.80;;;;;;6090876;23;19922;-79
2021/12/23 03:55:13;;;;;;;;;;;0.70;74.70;;;;;;6084527;23;19925;-79
2021/12/23 03:57:40;;;;;;;;;;;0.70;74.40;;;;;;6097132;23;19925;-81
2021/12/23 04:00:11;;;;;;;;;;;0.70;75.20;;;;;;6092472;23;19925;-79
2021/12/23 04:02:38;;;;;;;;;;;0.70;74.10;;;;;;6099337;23;19989;-79
2021/12/23 04:05:09;;;;;;;;;;;0.70;74.00;;;;;;6097086;23;19925;-79
2021/12/23 04:07:36;;;;;;;;;;;0.70;73.60;;;;;;6106467;23;19997;-79
2021/12/23 04:10:03;;;;;;;;;;;0.70;73.10;;;;;;6092852;23;20296;-80
2021/12/23 04:12:30;;;;;;;;;;;0.70;73.00;;;;;;6102091;23;19934;-78
2021/12/23 04:14:57;;;;;;;;;;;0.70;73.10;;;;;;6096444;23;20299;-80
2021/12/23 04:17:23;;;;;;;;;;;0.70;73.40;;;;;;6100062;23;19935;-78
2021/12/23 04:19:51;;;;;;;;;;;0.70;73.50;;;;;;6092063;23;19922;-80
2021/12/23 04:22:17;;;;;;;;;;;0.70;73.70;;;;;;6094156;23;19922;-80
2021/12/23 04:24:44;;;;;;;;;;;0.70;74.30;;;;;;6105145;23;19942;-78
2021/12/23 04:27:11;;;;;;;;;;;0.70;74.50;;;;;;6096091;23;19921;-79
2021/12/23 04:29:38;;;;;;;;;;;0.60;74.80;;;;;;6095746;23;19985;-80
2021/12/23 04:32:05;;;;;;;;;;;0.60;75.00;;;;;;6074024;23;19973;-78
2021/12/23 04:34:32;;;;;;;;;;;0.60;75.10;;;;;;6101624;23;19905;-78
2021/12/23 04:36:58;;;;;;;;;;;0.50;75.10;;;;;;6095800;23;19905;-77
2021/12/23 04:39:25;;;;;;;;;;;0.50;75.10;;;;;;6097430;23;19945;-79
2021/12/23 04:41:52;;;;;;;;;;;0.40;77.10;;;;;;6102198;23;19905;-79
2021/12/23 04:44:19;;;;;;;;;;;0.30;77.90;;;;;;6104078;23;20332;-78
2021/12/23 04:46:46;;;;;;;;;;;0.20;78.70;;;;;;6098922;23;19923;-80
2021/12/23 04:49:12;;;;;;;;;;;0.20;78.90;;;;;;6102805;23;19950;-77
2021/12/23 04:51:39;;;;;;;;;;;0.10;79.70;;;;;;6099714;23;19973;-80
2021/12/23 04:54:06;;;;;;;;;;;0.00;80.30;;;;;;6106027;23;19921;-78
2021/12/23 04:56:33;;;;;;;;;;;0.00;82.10;;;;;;6095710;23;19973;-79
2021/12/23 04:58:59;;;;;;;;;;;-0.20;84.20;;;;;;6076204;23;19922;-78
2021/12/23 05:01:31;;;;;;;;;;;-0.30;83.70;;;;;;6097168;23;19922;-81
2021/12/23 05:03:59;;;;;;;;;;;-0.40;84.70;;;;;;6090240;23;19922;-81
2021/12/23 05:06:27;;;;;;;;;;;-0.40;85.00;;;;;;6100728;23;19921;-80
2021/12/23 05:08:54;;;;;;;;;;;-0.50;85.30;;;;;;6094590;23;20362;-80
2021/12/23 05:11:20;;;;;;;;;;;-0.50;85.90;;;;;;6072748;23;19925;-79
2021/12/23 05:13:47;;;;;;;;;;;-0.50;86.20;;;;;;6100478;23;20307;-80
2021/12/23 05:16:17;;;;;;;;;;;-0.60;85.80;;;;;;6093998;23;19922;-78
2021/12/23 05:18:44;;;;;;;;;;;-0.60;84.60;;;;;;6098629;23;20402;-81
2021/12/23 05:21:11;;;;;;;;;;;-0.60;84.00;;;;;;6067125;23;19977;-79
2021/12/23 05:23:39;;;;;;;;;;;-0.60;84.50;;;;;;6046834;23;19955;-79
2021/12/23 05:26:07;;;;;;;;;;;-0.70;84.20;;;;;;6042226;23;19922;-81
2021/12/23 05:28:35;;;;;;;;;;;-0.70;84.20;;;;;;6050709;23;19932;-79
2021/12/23 05:31:02;;;;;;;;;;;-0.70;85.20;;;;;;6044280;23;19922;-80
2021/12/23 05:33:29;;;;;;;;;;;-0.80;86.40;;;;;;6022907;23;19922;-80
2021/12/23 05:35:56;;;;;;;;;;;-0.80;86.60;;;;;;6041825;23;19926;-81
2021/12/23 05:38:23;;;;;;;;;;;-0.90;87.50;;;;;;6042812;23;19929;-81
2021/12/23 05:40:51;;;;;;;;;;;-1.00;89.10;;;;;;6046372;23;19949;-81
2021/12/23 05:43:17;;;;;;;;;;;-1.00;89.30;;;;;;6071042;23;19978;-78
2021/12/23 05:45:44;;;;;;;;;;;-1.10;89.40;;;;;;6049764;23;19922;-78
2021/12/23 05:48:11;;;;;;;;;;;-1.00;89.00;;;;;;6045461;23;20331;-81
2021/12/23 05:50:38;;;;;;;;;;;-1.00;88.40;;;;;;6042577;23;19928;-79
2021/12/23 05:53:05;;;;;;;;;;;-1.10;87.90;;;;;;6050078;23;20370;-79
2021/12/23 05:55:32;;;;;;;;;;;-1.10;87.50;;;;;;6067764;23;19922;-79
2021/12/23 05:57:58;;;;;;;;;;;-1.10;87.20;;;;;;6067920;23;19922;-79
2021/12/23 06:00:27;;;;;;;;;;;-1.10;87.20;;;;;;6046943;23;19925;-79
2021/12/23 06:02:55;;;;;;;;;;;-1.10;86.90;;;;;;6048338;23;19930;-80
2021/12/23 06:05:22;;;;;;;;;;;-1.20;86.50;;;;;;6049390;23;19973;-79
2021/12/23 06:07:49;;;;;;;;;;;-1.10;86.00;;;;;;6050979;23;19946;-79
2021/12/23 06:10:16;;;;;;;;;;;-1.10;85.40;;;;;;6044857;23;19921;-79
2021/12/23 06:12:44;;;;;;;;;;;-1.00;84.80;;;;;;6045391;23;19925;-79
2021/12/23 06:15:11;;;;;;;;;;;-1.00;83.80;;;;;;6047083;23;19933;-78
2021/12/23 06:17:38;;;;;;;;;;;-0.90;82.90;;;;;;6046828;23;19921;-78
2021/12/23 06:20:06;;;;;;;;;;;-0.90;82.50;;;;;;6049011;23;20315;-80
2021/12/23 06:22:36;;;;;;;;;;;-0.80;82.40;;;;;;6074599;23;19925;-80
2021/12/23 06:25:04;;;;;;;;;;;-0.80;82.00;;;;;;6088851;23;19921;-79
2021/12/23 06:27:31;;;;;;;;;;;-0.80;81.40;;;;;;6093163;23;19925;-79
2021/12/23 06:29:58;;;;;;;;;;;-0.80;81.00;;;;;;6069688;23;19928;-80
2021/12/23 06:32:25;;;;;;;;;;;-0.80;80.60;;;;;;6095285;23;19932;-79
2021/12/23 06:34:52;;;;;;;;;;;-0.70;80.50;;;;;;6071051;23;19996;-79
2021/12/23 06:37:18;;;;;;;;;;;-0.70;80.40;;;;;;6102700;23;19921;-79
2021/12/23 06:39:46;;;;;;;;;;;-0.60;80.20;;;;;;6081708;23;19925;-79
2021/12/23 06:42:13;;;;;;;;;;;-0.60;79.90;;;;;;6092211;23;19963;-79
2021/12/23 06:44:40;;;;;;;;;;;-0.50;79.80;;;;;;6097351;23;19925;-78
2021/12/23 06:47:07;;;;;;;;;;;-0.50;79.60;;;;;;6089003;23;19929;-79
2021/12/23 06:49:34;;;;;;;;;;;-0.40;79.50;;;;;;6094192;23;19989;-78
2021/12/23 06:52:01;;;;;;;;;;;-0.50;79.40;;;;;;6084025;23;19926;-79
2021/12/23 06:54:28;;;;;;;;;;;-0.40;79.30;;;;;;6089565;23;19921;-79
2021/12/23 06:56:54;;;;;;;;;;;-0.40;79.10;;;;;;6077848;23;20241;-79
2021/12/23 06:59:21;;;;;;;;;;;-0.40;79.30;;;;;;6070030;23;19985;-78
2021/12/23 07:01:49;;;;;;;;;;;-0.30;79.30;;;;;;6101153;23;19906;-78
2021/12/23 07:04:22;;;;;;;;;;;-0.30;79.00;;;;;;6066298;23;19933;-77
2021/12/23 07:07:11;;;;;;;;;;;-0.30;78.70;;;;;;6070253;23;19922;-79
2021/12/23 07:09:37;;;;;;;;;;;-0.40;80.70;;;;;;6067595;23;20418;-79
2021/12/23 07:12:04;;;;;;;;;;;-0.50;81.00;;;;;;6070853;23;20296;-79
2021/12/23 07:14:31;;;;;;;;;;;-0.50;81.40;;;;;;6088714;23;19926;-78
2021/12/23 07:16:58;;;;;;;;;;;-0.60;81.70;;;;;;6089729;23;19922;-79
2021/12/23 07:19:25;;;;;;;;;;;-0.60;81.90;;;;;;6091087;23;19941;-79
2021/12/23 07:21:52;;;;;;;;;;;-0.60;83.40;;;;;;6092245;23;19925;-78
2021/12/23 07:24:18;;;;;;;;;;;-0.70;83.80;;;;;;6091511;23;19921;-79
2021/12/23 07:26:45;;;;;;;;;;;-0.70;84.40;;;;;;6093587;23;19925;-78
2021/12/23 07:29:12;;;;;;;;;;;-0.70;84.40;;;;;;6093424;23;19921;-79
2021/12/23 07:31:39;;;;;;;;;;;-0.70;83.80;;;;;;6090059;23;19922;-79
2021/12/23 07:34:07;;;;;;;;;;;-0.60;83.20;;;;;;6090978;23;19950;-79
2021/12/23 07:36:34;;;;;;;;;;;-0.60;82.40;;;;;;6094069;23;19925;-78
2021/12/23 07:39:06;;;;;;;;;;;-0.60;82.50;;;;;;6069761;23;19928;-79
2021/12/23 07:41:53;;;;;;;;;;;-0.60;82.60;;;;;;6089972;23;19929;-78
2021/12/23 07:44:34;;;;;;;;;;;-0.50;81.30;;;;;;6092766;23;19922;-78
2021/12/23 07:47:02;;;;;;;;;;;-0.40;80.60;;;;;;6090876;23;19922;-79
2021/12/23 07:49:29;;;;;;;;;;;-0.40;79.90;;;;;;6090129;23;19925;-80
2021/12/23 07:51:56;;;;;;;;;;;-0.30;79.00;;;;;;6091225;23;19926;-79
2021/12/23 07:54:23;;;;;;;;;;;-0.20;78.10;;;;;;6093955;23;19925;-79
2021/12/23 07:56:50;;;;;;;;;;;-0.20;77.30;;;;;;6105907;23;19953;-79
2021/12/23 07:59:16;;;;;;;;;;;-0.10;77.40;;;;;;6091151;23;19958;-78
2021/12/23 08:01:43;;;;;;;;;;;-0.10;77.20;;;;;;6095714;23;19928;-79
2021/12/23 08:04:10;;;;;;;;;;;-0.10;78.20;;;;;;6096406;23;19941;-79
2021/12/23 08:06:37;;;;;;;;;;;-0.10;77.00;;;;;;6066300;23;19925;-80
2021/12/23 08:09:04;;;;;;;;;;;-0.10;78.20;;;;;;6111428;23;19929;-79
2021/12/23 08:11:31;;;;;;;;;;;-0.10;78.20;;;;;;6071821;23;19926;-79
2021/12/23 08:13:58;;;;;;;;;;;-0.10;78.50;;;;;;6100352;23;19921;-80
2021/12/23 08:16:26;;;;;;;;;;;-0.10;79.20;;;;;;6077999;23;19910;-80
2021/12/23 08:18:53;;;;;;;;;;;-0.20;81.90;;;;;;6071802;23;20323;-78
2021/12/23 08:21:19;;;;;;;;;;;-0.30;82.00;;;;;;6091964;23;19921;-78
2021/12/23 08:23:46;;;;;;;;;;;-0.30;84.60;;;;;;6090251;23;19925;-78
2021/12/23 08:26:16;;;;;;;;;;;-0.40;85.20;;;;;;6099374;23;19905;-79
2021/12/23 08:28:43;;;;;;;;;;;-0.50;86.30;;;;;;6094867;23;20343;-78
2021/12/23 08:31:10;;;;;;;;;;;-0.60;86.30;;;;;;6100972;23;19946;-79
2021/12/23 08:33:37;;;;;;;;;;;-0.50;86.40;;;;;;6077786;23;19957;-79
2021/12/23 08:36:04;;;;;;;;;;;-0.50;86.30;;;;;;6095699;23;20266;-79
2021/12/23 08:38:31;;;;;;;;;;;-0.50;89.10;;;;;;6096223;23;19921;-78
2021/12/23 08:40:57;;;;;;;;;;;-0.60;88.50;;;;;;6070525;23;19930;-79
2021/12/23 08:43:24;;;;;;;;;;;-0.50;89.10;;;;;;6069096;23;19921;-78
2021/12/23 08:45:51;;;;;;;;;;;-0.40;88.90;;;;;;6068562;23;19921;-79
2021/12/23 08:48:18;;;;;;;;;;;-0.20;88.70;;;;;;6068282;23;19928;-79
2021/12/23 08:50:45;;;;;;;;;;;0.00;88.10;;;;;;6104877;23;19925;-79
2021/12/23 08:53:12;;;;;;;;;;;0.30;87.60;;;;;;6090033;23;20339;-77
2021/12/23 08:55:38;;;;;;;;;;;0.50;86.30;;;;;;6076124;23;19954;-80
2021/12/23 08:58:05;;;;;;;;;;;0.70;85.50;;;;;;6097232;23;20414;-80
2021/12/23 09:00:33;;;;;;;;;;;0.90;84.00;;;;;;6075099;23;19921;-80
2021/12/23 09:03:00;;;;;;;;;;;1.10;83.60;;;;;;6071826;23;19921;-79
2021/12/23 09:05:28;;;;;;;;;;;1.30;82.60;;;;;;6069661;23;19929;-79
2021/12/23 09:07:55;;;;;;;;;;;1.50;81.20;;;;;;6067036;23;19929;-79
2021/12/23 09:10:21;;;;;;;;;;;1.70;79.30;;;;;;6100608;23;19921;-78
2021/12/23 09:12:48;;;;;;;;;;;1.80;77.30;;;;;;6069431;23;19933;-79
2021/12/23 09:15:16;;;;;;;;;;;1.90;76.70;;;;;;6073667;23;19926;-79
2021/12/23 09:17:42;;;;;;;;;;;2.00;77.70;;;;;;6074408;23;19953;-79
2021/12/23 09:20:10;;;;;;;;;;;2.10;77.50;;;;;;6092866;23;19937;-79
2021/12/23 09:22:37;;;;;;;;;;;2.10;76.90;;;;;;6093497;23;19921;-79
2021/12/23 09:25:10;;;;;;;;;;;2.20;76.20;;;;;;6071708;23;19925;-78
2021/12/23 09:28:05;;;;;;;;;;;2.30;76.30;;;;;;6092277;23;19953;-79
2021/12/23 09:33:26;;;;;;;;;;;2.40;76.70;;;;;;6064014;23;19921;-78
2021/12/23 09:35:53;;;;;;;;;;;2.50;75.90;;;;;;6095964;23;19922;-78
2021/12/23 09:38:27;;;;;;;;;;;2.70;75.70;;;;;;6093614;23;19981;-78
2021/12/23 09:41:00;;;;;;;;;;;2.80;75.30;;;;;;6092046;23;21626;-79
2021/12/23 09:43:28;;;;;;;;;;;2.80;76.00;;;;;;6091680;23;19922;-78
2021/12/23 09:45:55;;;;;;;;;;;2.90;74.00;;;;;;6098713;23;19992;-79
2021/12/23 09:48:22;;;;;;;;;;;2.90;73.00;;;;;;6097321;23;19945;-79
2021/12/23 09:50:50;;;;;;;;;;;2.90;74.00;;;;;;6070387;23;19946;-79
2021/12/23 09:53:19;;;;;;;;;;;3.00;73.80;;;;;;6091884;23;19925;-78
2021/12/23 09:55:46;;;;;;;;;;;3.10;73.40;;;;;;6093350;23;19922;-79
2021/12/23 09:58:13;;;;;;;;;;;3.30;73.10;;;;;;6088755;23;19922;-79
2021/12/23 10:00:45;;;;;;;;;;;3.30;72.80;;;;;;6091979;23;20306;-80
2021/12/23 10:03:13;;;;;;;;;;;3.40;72.50;;;;;;6096356;23;19906;-77
2021/12/23 10:05:40;;;;;;;;;;;3.40;71.90;;;;;;6071753;23;19926;-79
2021/12/23 10:08:09;;;;;;;;;;;3.30;72.90;;;;;;6099526;23;19906;-78
2021/12/23 10:10:49;;;;;;;;;;;3.50;73.00;;;;;;6095227;23;19922;-78
2021/12/23 10:37:21;;;;;;;;;;;4.80;66.70;;;;;;6088725;23;19922;-78
2021/12/23 10:39:49;;;;;;;;;;;5.00;66.20;;;;;;6078436;23;20712;-77
2021/12/23 10:42:21;;;;;;;;;;;5.20;65.30;;;;;;6041881;23;19928;-79
2021/12/23 10:44:49;;;;;;;;;;;5.30;64.50;;;;;;6076837;23;20017;-76
2021/12/23 10:47:34;;;;;;;;;;;5.10;63.90;;;;;;6050483;23;20339;-79
2021/12/23 10:50:19;;;;;;;;;;;5.10;64.50;;;;;;6065591;23;19922;-79
2021/12/23 10:52:48;;;;;;;;;;;5.20;65.20;;;;;;6073649;23;20339;-80
2021/12/23 10:58:07;;;;;;;;;;;5.40;64.10;;;;;;6066095;23;19921;-79
2021/12/23 11:00:41;;;;;;;;;;;5.40;63.80;;;;;;6042254;23;19922;-79
2021/12/23 11:03:40;;;;;;;;;;;5.00;64.70;;;;;;6076099;23;19926;-79
2021/12/23 11:06:17;;;;;;;;;;;4.90;65.90;;;;;;6071521;23;20339;-77
2021/12/23 11:29:03;;;;;;;;;;;5.40;67.10;;;;;;6042573;23;19926;-80
2021/12/23 20:47:10;;;;;;;;;;;-0.30;83.40;;;;;;6090878;23;19921;-79
2021/12/23 20:49:37;;;;;;;;;;;-0.30;83.50;;;;;;6081225;23;19945;-79
2021/12/23 20:52:06;;;;;;;;;;;-0.30;83.50;;;;;;6076944;23;20409;-81
2021/12/23 20:54:43;;;;;;;;;;;-0.40;83.20;;;;;;6080017;23;19967;-80
2021/12/23 20:57:10;;;;;;;;;;;-0.40;82.80;;;;;;6086596;23;19948;-79
2021/12/23 20:59:38;;;;;;;;;;;-0.50;83.20;;;;;;6081181;23;19957;-78
2021/12/23 21:02:06;;;;;;;;;;;-0.60;84.60;;;;;;6086882;23;19912;-78
2021/12/23 21:04:32;;;;;;;;;;;-0.60;83.80;;;;;;6076716;23;19953;-79
2021/12/23 21:06:59;;;;;;;;;;;-0.60;83.40;;;;;;6096792;23;19921;-81
2021/12/23 21:09:26;;;;;;;;;;;-0.60;83.30;;;;;;6075165;23;19909;-81
2021/12/23 21:11:53;;;;;;;;;;;-0.60;85.80;;;;;;6106401;23;19932;-81
2021/12/23 21:14:22;;;;;;;;;;;-0.70;85.10;;;;;;6077123;23;19926;-78
2021/12/23 21:16:51;;;;;;;;;;;-0.80;86.50;;;;;;6099497;23;19937;-81
2021/12/23 21:19:19;;;;;;;;;;;-0.80;86.00;;;;;;6080365;23;20506;-80
2021/12/23 21:21:47;;;;;;;;;;;-0.80;85.80;;;;;;6077011;23;20255;-81
2021/12/23 21:24:15;;;;;;;;;;;-0.80;85.40;;;;;;6076317;23;20343;-80
2021/12/23 21:26:42;;;;;;;;;;;-0.80;85.20;;;;;;6070893;23;19932;-79
2021/12/23 21:29:10;;;;;;;;;;;-0.80;85.20;;;;;;6081304;23;19928;-80
2021/12/23 21:31:37;;;;;;;;;;;-0.80;85.20;;;;;;6074079;23;19936;-78
2021/12/23 21:34:04;;;;;;;;;;;-0.80;86.70;;;;;;6077754;23;20343;-81
2021/12/23 21:36:32;;;;;;;;;;;-0.90;86.60;;;;;;6078074;23;19928;-78
2021/12/23 21:38:59;;;;;;;;;;;-0.90;86.00;;;;;;6073747;23;19929;-81
2021/12/23 21:41:31;;;;;;;;;;;-0.90;85.80;;;;;;6057167;23;19913;-79
2021/12/23 21:43:57;;;;;;;;;;;-0.90;85.60;;;;;;6095816;23;19921;-81
2021/12/23 21:46:25;;;;;;;;;;;-0.90;86.30;;;;;;6070339;23;19944;-81
2021/12/23 21:48:59;;;;;;;;;;;-0.90;85.90;;;;;;6099309;23;19927;-79
2021/12/23 21:51:30;;;;;;;;;;;-0.90;85.80;;;;;;6109962;23;19924;-80
2021/12/23 21:54:04;;;;;;;;;;;-0.90;85.00;;;;;;6097990;23;20264;-80
2021/12/23 21:56:31;;;;;;;;;;;-0.90;84.80;;;;;;6100073;23;19925;-80
2021/12/23 21:58:59;;;;;;;;;;;-1.00;84.50;;;;;;6134485;23;20473;-80
2021/12/23 22:01:26;;;;;;;;;;;-1.00;84.60;;;;;;6104256;23;19932;-78
2021/12/23 22:03:54;;;;;;;;;;;-1.00;84.60;;;;;;6113781;23;20331;-80
2021/12/23 22:06:22;;;;;;;;;;;-1.00;84.90;;;;;;6138441;23;19905;-80
2021/12/23 22:08:48;;;;;;;;;;;-1.00;84.80;;;;;;6104000;23;19968;-79
2021/12/23 22:11:15;;;;;;;;;;;-1.00;85.20;;;;;;6104260;23;19925;-78
2021/12/23 22:13:42;;;;;;;;;;;-1.00;85.20;;;;;;6109108;23;19925;-79
2021/12/23 22:16:10;;;;;;;;;;;-1.00;84.90;;;;;;6113127;23;19931;-77
2021/12/23 22:18:37;;;;;;;;;;;-1.00;84.50;;;;;;6111619;23;19980;-79
2021/12/23 22:21:04;;;;;;;;;;;-1.00;84.30;;;;;;6132604;23;20302;-80
2021/12/23 22:23:31;;;;;;;;;;;-1.10;84.00;;;;;;6113720;23;20355;-78
2021/12/23 22:25:57;;;;;;;;;;;-1.10;83.90;;;;;;6109130;23;19921;-80
2021/12/23 22:28:24;;;;;;;;;;;-1.10;84.00;;;;;;6109934;23;19920;-81
2021/12/23 22:30:51;;;;;;;;;;;-1.10;84.10;;;;;;6110633;23;20353;-79
2021/12/23 22:33:19;;;;;;;;;;;-1.10;83.90;;;;;;6105098;23;19979;-79
2021/12/23 22:35:46;;;;;;;;;;;-1.10;83.50;;;;;;6099382;23;20028;-81
2021/12/23 22:38:12;;;;;;;;;;;-1.10;83.20;;;;;;6099693;23;19972;-81
2021/12/23 22:40:39;;;;;;;;;;;-1.10;82.60;;;;;;6114690;23;19924;-79
2021/12/23 22:43:06;;;;;;;;;;;-1.20;82.40;;;;;;6125301;23;19944;-78
2021/12/23 22:45:34;;;;;;;;;;;-1.20;82.90;;;;;;6109034;23;19927;-78
2021/12/23 22:48:02;;;;;;;;;;;-1.20;82.90;;;;;;6103377;23;19988;-80
2021/12/23 22:50:29;;;;;;;;;;;-1.10;83.00;;;;;;6124125;23;19935;-80
2021/12/23 22:52:57;;;;;;;;;;;-1.10;83.00;;;;;;6099913;23;19921;-81
2021/12/23 22:55:24;;;;;;;;;;;-1.10;83.40;;;;;;6099233;23;19921;-79
2021/12/23 22:57:51;;;;;;;;;;;-1.10;84.80;;;;;;6099750;23;19925;-79
2021/12/23 23:00:30;;;;;;;;;;;-1.10;85.00;;;;;;6104888;23;19921;-79
2021/12/23 23:03:03;;;;;;;;;;;-1.10;84.70;;;;;;6139351;23;19921;-81
2021/12/23 23:05:30;;;;;;;;;;;-1.10;84.50;;;;;;6109139;23;19933;-77
2021/12/23 23:07:57;;;;;;;;;;;-1.20;84.20;;;;;;6107921;23;19905;-78
2021/12/23 23:10:39;;;;;;;;;;;-1.20;85.00;;;;;;6101123;23;19928;-82
2021/12/23 23:13:14;;;;;;;;;;;-1.20;85.80;;;;;;6105734;23;20096;-78
2021/12/23 23:18:27;;;;;;;;;;;-1.20;85.50;;;;;;6140900;23;19921;-81
2021/12/23 23:20:54;;;;;;;;;;;-1.20;85.50;;;;;;6101459;23;19925;-81
2021/12/23 23:23:22;;;;;;;;;;;-1.20;85.60;;;;;;6103793;23;19932;-77
2021/12/23 23:25:52;;;;;;;;;;;-1.30;85.40;;;;;;6105944;23;19921;-77
2021/12/23 23:37:18;;;;;;;;;;;-1.50;85.60;;;;;;6137270;23;20452;-79
2021/12/23 23:42:28;;;;;;;;;;;-1.50;85.70;;;;;;6126609;23;19920;-80
2021/12/23 23:44:55;;;;;;;;;;;-1.50;85.70;;;;;;6100572;23;19925;-79
2021/12/23 23:47:22;;;;;;;;;;;-1.50;86.50;;;;;;6126133;23;19952;-79
2021/12/23 23:49:49;;;;;;;;;;;-1.50;86.50;;;;;;6072256;23;19925;-81
2021/12/23 23:52:16;;;;;;;;;;;-1.60;86.00;;;;;;6076687;23;19972;-81
2021/12/23 23:54:43;;;;;;;;;;;-1.60;86.40;;;;;;6077714;23;20335;-79
2021/12/23 23:57:10;;;;;;;;;;;-1.60;86.60;;;;;;6072529;23;19926;-80
2021/12/23 23:59:37;;;;;;;;;;;-1.60;86.40;;;;;;6080604;23;19988;-78
